createdAt,value
2023-05-28T00:00:36.176Z,75.92
2023-05-28T00:03:04.860Z,75.92
2023-05-28T00:05:34.901Z,76.01
2023-05-28T00:08:03.329Z,76.12
2023-05-28T00:10:31.870Z,76.25
2023-05-28T00:13:00.866Z,76.21
2023-05-28T00:15:29.595Z,76.32
2023-05-28T00:17:58.806Z,76.46
2023-05-28T00:20:27.732Z,76.45
2023-05-28T00:22:58.065Z,76.41
2023-05-28T00:25:26.769Z,76.43
2023-05-28T00:27:55.513Z,76.43
2023-05-28T00:30:26.007Z,76.33
2023-05-28T00:32:56.115Z,76.56
2023-05-28T00:35:26.286Z,76.57
2023-05-28T00:37:56.140Z,76.77
2023-05-28T00:40:24.955Z,77.10
2023-05-28T00:42:54.370Z,76.47
2023-05-28T00:45:22.868Z,76.37
2023-05-28T00:47:52.453Z,76.91
2023-05-28T00:50:21.687Z,76.56
2023-05-28T00:52:53.181Z,76.63
2023-05-28T00:55:23.490Z,76.76
2023-05-28T00:57:55.593Z,76.48
2023-05-28T01:00:25.131Z,76.36
2023-05-28T01:03:04.249Z,76.64
2023-05-28T01:05:33.118Z,76.33
2023-05-28T01:08:02.622Z,76.39
2023-05-28T01:10:33.982Z,76.34
2023-05-28T01:13:05.883Z,77.17
2023-05-28T01:15:35.197Z,77.18
2023-05-28T01:18:04.539Z,76.62
2023-05-28T01:20:33.720Z,76.72
2023-05-28T01:23:08.365Z,76.76
2023-05-28T01:25:39.891Z,77.14
2023-05-28T01:28:18.000Z,77.00
2023-05-28T01:30:47.013Z,77.54
2023-05-28T01:33:17.635Z,77.53
2023-05-28T01:35:46.296Z,77.38
2023-05-28T01:38:17.373Z,77.88
2023-05-28T01:40:49.972Z,77.36
2023-05-28T01:43:21.219Z,77.47
2023-05-28T01:45:50.809Z,77.38
2023-05-28T01:48:20.382Z,77.33
2023-05-28T01:50:49.105Z,77.23
2023-05-28T01:53:17.620Z,77.86
2023-05-28T01:55:47.504Z,77.41
2023-05-28T01:58:16.049Z,77.75
2023-05-28T02:00:52.805Z,77.90
2023-05-28T02:03:21.414Z,77.63
2023-05-28T02:05:49.836Z,77.44
2023-05-28T02:08:18.372Z,77.95
2023-05-28T02:10:48.417Z,77.37
2023-05-28T02:13:17.659Z,77.62
2023-05-28T02:15:47.413Z,77.55
2023-05-28T02:18:16.118Z,77.93
2023-05-28T02:20:44.937Z,78.08
2023-05-28T02:23:13.823Z,77.88
2023-05-28T02:25:42.777Z,78.09
2023-05-28T02:28:12.835Z,77.82
2023-05-28T02:30:41.700Z,77.62
2023-05-28T02:33:10.632Z,78.07
2023-05-28T02:35:40.343Z,78.15
2023-05-28T02:38:09.251Z,78.04
2023-05-28T02:40:37.677Z,78.25
2023-05-28T02:43:06.427Z,78.36
2023-05-28T02:45:36.498Z,77.83
2023-05-28T02:48:06.045Z,77.85
2023-05-28T02:50:34.586Z,78.11
2023-05-28T02:53:05.341Z,78.21
2023-05-28T02:55:34.005Z,78.08
2023-05-28T02:58:02.576Z,78.31
2023-05-28T03:00:31.218Z,78.33
2023-05-28T03:03:01.285Z,77.98
2023-05-28T03:05:32.416Z,78.05
2023-05-28T03:08:01.186Z,78.18
2023-05-28T03:10:30.326Z,78.70
2023-05-28T03:12:59.024Z,78.31
2023-05-28T03:15:27.979Z,78.81
2023-05-28T03:17:56.775Z,78.59
2023-05-28T03:20:27.015Z,78.76
2023-05-28T03:22:58.667Z,78.74
2023-05-28T03:25:27.675Z,78.75
2023-05-28T03:27:56.508Z,79.25
2023-05-28T03:30:25.207Z,79.21
2023-05-28T03:32:53.882Z,79.39
2023-05-28T03:35:22.579Z,79.31
2023-05-28T03:37:52.434Z,79.25
2023-05-28T03:40:23.638Z,79.47
2023-05-28T03:42:52.046Z,79.60
2023-05-28T03:45:20.558Z,79.54
2023-05-28T03:47:49.232Z,79.71
2023-05-28T03:50:17.807Z,79.75
2023-05-28T03:52:46.554Z,79.78
2023-05-28T03:55:16.802Z,79.62
2023-05-28T03:57:46.151Z,79.61
2023-05-28T04:00:18.702Z,79.66
2023-05-28T04:02:47.660Z,79.56
2023-05-28T04:05:16.508Z,80.09
2023-05-28T04:07:45.567Z,80.13
2023-05-28T04:10:16.015Z,79.94
2023-05-28T04:12:45.376Z,80.08
2023-05-28T04:15:17.473Z,80.16
2023-05-28T04:17:46.330Z,80.00
2023-05-28T04:20:15.516Z,80.30
2023-05-28T04:22:44.628Z,80.38
2023-05-28T04:25:20.027Z,80.36
2023-05-28T04:27:48.533Z,80.55
2023-05-28T04:30:17.090Z,80.56
2023-05-28T04:32:45.564Z,80.17
2023-05-28T04:35:15.790Z,80.09
2023-05-28T04:37:45.600Z,80.30
2023-05-28T04:40:14.694Z,80.43
2023-05-28T04:42:45.161Z,80.43
2023-05-28T04:45:14.905Z,80.48
2023-05-28T04:47:44.182Z,80.23
2023-05-28T04:50:13.205Z,80.03
2023-05-28T04:52:41.965Z,80.33
2023-05-28T04:55:11.563Z,80.23
2023-05-28T04:57:40.079Z,79.50
2023-05-28T05:00:14.502Z,79.88
2023-05-28T05:02:43.290Z,79.66
2023-05-28T05:05:12.288Z,80.10
2023-05-28T05:07:41.830Z,79.60
2023-05-28T05:10:12.401Z,79.62
2023-05-28T05:12:41.089Z,79.47
2023-05-28T05:15:11.772Z,79.35
2023-05-28T05:17:40.489Z,79.10
2023-05-28T05:20:13.381Z,79.19
2023-05-28T05:22:42.014Z,78.88
2023-05-28T05:25:11.339Z,78.53
2023-05-28T05:27:40.118Z,78.38
2023-05-28T05:30:11.996Z,78.26
2023-05-28T05:32:40.393Z,78.11
2023-05-28T05:35:10.301Z,77.90
2023-05-28T05:37:38.816Z,77.72
2023-05-28T05:40:10.201Z,78.11
2023-05-28T05:42:38.766Z,77.81
2023-05-28T05:45:11.062Z,77.93
2023-05-28T05:47:41.652Z,78.09
2023-05-28T05:50:13.393Z,77.57
2023-05-28T05:52:42.684Z,77.38
2023-05-28T05:55:11.749Z,77.73
2023-05-28T05:57:40.711Z,76.98
2023-05-28T06:00:11.667Z,76.98
2023-05-28T06:02:42.403Z,76.70
2023-05-28T06:05:12.221Z,76.46
2023-05-28T06:07:40.845Z,75.85
2023-05-28T06:10:10.990Z,75.83
2023-05-28T06:12:39.605Z,75.31
2023-05-28T06:15:09.645Z,75.17
2023-05-28T06:17:38.185Z,75.23
2023-05-28T06:20:10.235Z,74.79
2023-05-28T06:22:38.885Z,73.92
2023-05-28T06:25:09.837Z,73.40
2023-05-28T06:27:38.421Z,72.90
2023-05-28T06:30:08.702Z,72.36
2023-05-28T06:32:38.348Z,71.62
2023-05-28T06:35:10.203Z,71.09
2023-05-28T06:37:40.637Z,71.13
2023-05-28T06:40:12.032Z,70.72
2023-05-28T06:42:41.016Z,69.88
2023-05-28T06:45:10.925Z,69.13
2023-05-28T06:47:39.613Z,67.99
2023-05-28T06:50:10.639Z,66.47
2023-05-28T06:52:39.148Z,65.29
2023-05-28T06:55:09.837Z,63.22
2023-05-28T06:57:38.710Z,62.10
2023-05-28T07:00:10.619Z,61.45
2023-05-28T07:02:39.661Z,60.48
2023-05-28T07:05:10.749Z,59.53
2023-05-28T07:07:39.571Z,58.65
2023-05-28T07:10:10.067Z,57.11
2023-05-28T07:12:39.358Z,55.34
2023-05-28T07:15:09.997Z,54.48
2023-05-28T07:17:38.743Z,53.75
2023-05-28T07:20:10.117Z,53.50
2023-05-28T07:22:38.635Z,53.25
2023-05-28T07:25:08.830Z,53.19
2023-05-28T07:27:38.160Z,52.77
2023-05-28T07:30:07.904Z,52.54
2023-05-28T07:32:36.491Z,51.01
2023-05-28T07:35:06.190Z,50.72
2023-05-28T07:37:36.276Z,51.06
2023-05-28T07:40:06.390Z,50.37
2023-05-28T07:42:34.906Z,50.54
2023-05-28T07:45:03.403Z,50.53
2023-05-28T07:47:32.157Z,50.15
2023-05-28T07:50:00.689Z,50.64
2023-05-28T07:52:30.638Z,51.16
2023-05-28T07:55:01.578Z,51.62
2023-05-28T07:57:30.237Z,51.52
2023-05-28T07:59:59.046Z,50.42
2023-05-28T08:02:28.274Z,49.48
2023-05-28T08:04:58.281Z,48.51
2023-05-28T08:07:26.916Z,47.26
2023-05-28T08:09:55.480Z,46.75
2023-05-28T08:12:25.948Z,46.98
2023-05-28T08:14:54.595Z,47.09
2023-05-28T08:17:24.732Z,46.36
2023-05-28T08:20:01.367Z,46.04
2023-05-28T08:22:31.155Z,45.83
2023-05-28T08:25:00.013Z,45.42
2023-05-28T08:27:30.193Z,45.41
2023-05-28T08:29:58.946Z,44.38
2023-05-28T08:32:27.415Z,44.06
2023-05-28T08:34:55.969Z,43.60
2023-05-28T08:37:24.580Z,43.73
2023-05-28T08:39:53.261Z,43.59
2023-05-28T08:42:22.433Z,43.58
2023-05-28T08:44:52.288Z,43.31
2023-05-28T08:47:20.962Z,41.84
2023-05-28T08:49:54.211Z,42.05
2023-05-28T08:52:25.180Z,40.95
2023-05-28T08:54:54.406Z,40.16
2023-05-28T08:57:23.757Z,40.15
2023-05-28T08:59:55.516Z,40.12
2023-05-28T09:02:27.444Z,40.14
2023-05-28T09:04:58.243Z,39.49
2023-05-28T09:07:27.874Z,39.41
2023-05-28T09:09:58.088Z,38.83
2023-05-28T09:12:27.638Z,38.67
2023-05-28T09:14:58.566Z,38.45
2023-05-28T09:17:37.125Z,37.20
2023-05-28T09:20:13.794Z,37.61
2023-05-28T09:22:43.155Z,37.38
2023-05-28T09:25:12.952Z,37.00
2023-05-28T09:27:41.741Z,37.96
2023-05-28T09:30:13.268Z,36.86
2023-05-28T09:32:42.202Z,36.21
2023-05-28T09:35:12.038Z,36.84
2023-05-28T09:37:40.837Z,36.99
2023-05-28T09:40:11.264Z,36.50
2023-05-28T09:42:43.541Z,35.46
2023-05-28T09:45:24.616Z,35.52
2023-05-28T09:47:53.310Z,35.25
2023-05-28T09:50:22.260Z,36.18
2023-05-28T09:52:51.275Z,35.57
2023-05-28T09:55:21.374Z,35.06
2023-05-28T09:58:00.962Z,35.33
2023-05-28T10:00:35.036Z,34.68
2023-05-28T10:03:16.331Z,34.05
2023-05-28T10:05:51.647Z,33.94
2023-05-28T10:08:21.964Z,34.04
2023-05-28T10:10:55.085Z,34.38
2023-05-28T10:13:25.068Z,33.94
2023-05-28T10:15:56.417Z,34.84
2023-05-28T10:18:27.213Z,34.28
2023-05-28T10:20:57.089Z,34.37
2023-05-28T10:23:26.849Z,32.93
2023-05-28T10:25:56.480Z,32.64
2023-05-28T10:28:25.454Z,32.02
2023-05-28T10:31:07.355Z,32.40
2023-05-28T10:33:41.898Z,31.47
2023-05-28T10:36:16.375Z,30.81
2023-05-28T10:38:46.623Z,31.13
2023-05-28T10:41:22.539Z,31.20
2023-05-28T10:43:52.148Z,31.30
2023-05-28T10:46:29.373Z,31.45
2023-05-28T10:49:14.952Z,30.62
2023-05-28T10:51:53.090Z,30.81
2023-05-28T10:54:26.970Z,30.88
2023-05-28T10:57:20.327Z,32.12
2023-05-28T10:59:51.089Z,32.75
2023-05-28T11:02:26.798Z,33.04
2023-05-28T11:04:59.705Z,32.89
2023-05-28T11:07:33.826Z,33.69
2023-05-28T11:10:04.835Z,34.54
2023-05-28T11:12:37.880Z,34.29
2023-05-28T11:15:08.111Z,33.96
2023-05-28T11:17:41.656Z,34.05
2023-05-28T11:20:20.638Z,33.37
2023-05-28T11:22:49.990Z,33.68
2023-05-28T11:25:20.443Z,33.70
2023-05-28T11:27:51.949Z,34.61
2023-05-28T11:30:22.538Z,35.26
2023-05-28T11:32:52.625Z,35.65
2023-05-28T11:35:21.427Z,35.80
2023-05-28T11:37:49.897Z,35.65
2023-05-28T11:40:19.042Z,35.89
2023-05-28T11:42:47.855Z,36.02
2023-05-28T11:45:16.895Z,35.91
2023-05-28T11:47:47.766Z,35.88
2023-05-28T11:50:18.434Z,35.58
2023-05-28T11:52:47.830Z,36.23
2023-05-28T11:55:18.112Z,36.01
2023-05-28T11:57:56.671Z,35.60
2023-05-28T12:00:35.174Z,35.46
2023-05-28T12:03:04.083Z,34.72
2023-05-28T12:05:40.957Z,34.71
2023-05-28T12:08:10.265Z,33.62
2023-05-28T12:10:38.874Z,33.24
2023-05-28T12:13:08.304Z,34.23
2023-05-28T12:15:37.087Z,33.64
2023-05-28T12:18:06.296Z,32.94
2023-05-28T12:20:36.513Z,33.13
2023-05-28T12:23:09.264Z,32.76
2023-05-28T12:25:48.465Z,34.05
2023-05-28T12:28:19.085Z,33.49
2023-05-28T12:30:51.865Z,33.75
2023-05-28T12:33:21.219Z,33.90
2023-05-28T12:35:49.990Z,33.63
2023-05-28T12:38:21.944Z,32.68
2023-05-28T12:40:50.696Z,32.85
2023-05-28T12:43:19.305Z,32.80
2023-05-28T12:45:47.963Z,33.40
2023-05-28T12:48:17.762Z,32.85
2023-05-28T12:50:46.644Z,32.06
2023-05-28T12:53:15.274Z,32.60
2023-05-28T12:55:46.124Z,33.04
2023-05-28T12:58:15.211Z,33.36
2023-05-28T13:00:43.848Z,32.91
2023-05-28T13:03:12.540Z,32.97
2023-05-28T13:05:41.806Z,32.27
2023-05-28T13:08:10.382Z,32.24
2023-05-28T13:10:38.864Z,32.71
2023-05-28T13:13:08.682Z,32.45
2023-05-28T13:15:37.220Z,31.81
2023-05-28T13:18:06.176Z,31.99
2023-05-28T13:20:34.702Z,32.18
2023-05-28T13:23:03.756Z,31.59
2023-05-28T13:25:32.491Z,31.77
2023-05-28T13:28:03.132Z,31.70
2023-05-28T13:30:33.281Z,31.64
2023-05-28T13:33:01.774Z,30.92
2023-05-28T13:35:30.331Z,30.91
2023-05-28T13:37:58.888Z,30.10
2023-05-28T13:40:29.141Z,30.89
2023-05-28T13:42:57.770Z,29.66
2023-05-28T13:45:26.255Z,29.31
2023-05-28T13:47:56.179Z,29.30
2023-05-28T13:50:24.992Z,28.68
2023-05-28T13:52:53.675Z,28.90
2023-05-28T13:55:22.293Z,28.29
2023-05-28T13:57:51.292Z,27.84
2023-05-28T14:00:37.219Z,27.61
2023-05-28T14:03:09.655Z,28.44
2023-05-28T14:05:38.714Z,27.27
2023-05-28T14:08:07.352Z,27.34
2023-05-28T14:10:35.839Z,26.92
2023-05-28T14:13:04.426Z,26.45
2023-05-28T14:15:33.213Z,26.47
2023-05-28T14:18:01.934Z,25.90
2023-05-28T14:20:35.657Z,25.54
2023-05-28T14:23:04.478Z,25.55
2023-05-28T14:25:33.366Z,24.77
2023-05-28T14:28:11.400Z,25.34
2023-05-28T14:30:41.533Z,24.64
2023-05-28T14:33:11.542Z,24.85
2023-05-28T14:35:41.935Z,24.47
2023-05-28T14:38:10.450Z,25.12
2023-05-28T14:40:38.911Z,24.92
2023-05-28T14:43:07.618Z,24.87
2023-05-28T14:45:36.462Z,25.59
2023-05-28T14:48:05.213Z,25.59
2023-05-28T14:50:34.075Z,26.01
2023-05-28T14:53:03.999Z,25.76
2023-05-28T14:55:32.474Z,26.16
2023-05-28T14:58:00.996Z,26.34
2023-05-28T15:00:29.804Z,26.46
2023-05-28T15:02:58.664Z,26.30
2023-05-28T15:05:29.215Z,25.81
2023-05-28T15:07:58.245Z,26.45
2023-05-28T15:10:28.309Z,25.39
2023-05-28T15:12:58.679Z,24.83
2023-05-28T15:15:27.530Z,24.86
2023-05-28T15:17:56.761Z,25.42
2023-05-28T15:20:25.495Z,24.77
2023-05-28T15:22:54.045Z,25.21
2023-05-28T15:25:24.573Z,25.86
2023-05-28T15:27:54.938Z,25.48
2023-05-28T15:30:25.286Z,25.01
2023-05-28T15:32:59.028Z,25.27
2023-05-28T15:35:29.438Z,25.41
2023-05-28T15:37:58.935Z,25.56
2023-05-28T15:40:28.748Z,25.32
2023-05-28T15:43:06.144Z,24.83
2023-05-28T15:45:35.494Z,24.84
2023-05-28T15:48:04.177Z,24.88
2023-05-28T15:50:32.764Z,24.78
2023-05-28T15:53:02.683Z,24.62
2023-05-28T15:55:31.730Z,24.62
2023-05-28T15:58:02.430Z,24.24
2023-05-28T16:00:31.918Z,24.37
2023-05-28T16:03:01.224Z,24.89
2023-05-28T16:05:30.790Z,25.61
2023-05-28T16:08:04.330Z,24.94
2023-05-28T16:10:34.097Z,24.87
2023-05-28T16:13:08.461Z,25.36
2023-05-28T16:15:37.364Z,24.81
2023-05-28T16:18:08.819Z,25.34
2023-05-28T16:20:38.533Z,24.69
2023-05-28T16:23:07.996Z,25.49
2023-05-28T16:25:37.186Z,25.58
2023-05-28T16:28:08.168Z,24.63
2023-05-28T16:30:37.097Z,24.55
2023-05-28T16:33:06.607Z,24.36
2023-05-28T16:35:35.755Z,24.70
2023-05-28T16:38:05.200Z,24.32
2023-05-28T16:40:34.687Z,25.43
2023-05-28T16:43:03.724Z,25.92
2023-05-28T16:45:34.279Z,25.09
2023-05-28T16:48:03.550Z,25.28
2023-05-28T16:50:32.111Z,24.80
2023-05-28T16:53:00.766Z,26.00
2023-05-28T16:55:29.608Z,25.92
2023-05-28T16:57:58.506Z,25.55
2023-05-28T17:00:27.304Z,24.71
2023-05-28T17:02:57.702Z,25.52
2023-05-28T17:05:26.670Z,26.64
2023-05-28T17:07:55.190Z,26.20
2023-05-28T17:10:24.135Z,26.70
2023-05-28T17:12:52.659Z,26.31
2023-05-28T17:15:21.403Z,26.62
2023-05-28T17:17:50.017Z,27.00
2023-05-28T17:20:20.613Z,26.55
2023-05-28T17:22:49.381Z,27.11
2023-05-28T17:25:18.112Z,27.53
2023-05-28T17:27:47.278Z,27.47
2023-05-28T17:30:16.364Z,27.42
2023-05-28T17:32:45.139Z,27.56
2023-05-28T17:35:14.447Z,27.05
2023-05-28T17:37:44.650Z,27.34
2023-05-28T17:40:15.514Z,27.28
2023-05-28T17:42:45.790Z,27.52
2023-05-28T17:45:14.623Z,27.35
2023-05-28T17:47:43.641Z,27.95
2023-05-28T17:50:13.125Z,28.21
2023-05-28T17:52:41.804Z,28.22
2023-05-28T17:55:12.637Z,28.11
2023-05-28T17:57:42.827Z,28.16
2023-05-28T18:00:13.635Z,28.49
2023-05-28T18:02:42.238Z,28.94
2023-05-28T18:05:11.079Z,29.26
2023-05-28T18:07:39.511Z,29.12
2023-05-28T18:10:10.453Z,28.98
2023-05-28T18:12:40.573Z,28.89
2023-05-28T18:15:12.097Z,29.54
2023-05-28T18:17:40.824Z,30.56
2023-05-28T18:20:10.848Z,30.99
2023-05-28T18:22:39.664Z,30.48
2023-05-28T18:25:11.258Z,31.04
2023-05-28T18:27:41.643Z,31.13
2023-05-28T18:30:11.367Z,31.25
2023-05-28T18:32:39.834Z,31.65
2023-05-28T18:35:09.173Z,32.23
2023-05-28T18:37:37.610Z,32.59
2023-05-28T18:40:07.669Z,33.17
2023-05-28T18:42:36.233Z,33.63
2023-05-28T18:45:07.735Z,34.14
2023-05-28T18:47:36.934Z,35.58
2023-05-28T18:50:06.935Z,37.46
2023-05-28T18:52:36.166Z,38.95
2023-05-28T18:55:05.309Z,40.16
2023-05-28T18:57:33.969Z,41.29
2023-05-28T19:00:02.685Z,41.93
2023-05-28T19:02:32.767Z,42.50
2023-05-28T19:05:01.421Z,43.42
2023-05-28T19:07:30.376Z,44.39
2023-05-28T19:10:02.025Z,45.24
2023-05-28T19:12:32.043Z,45.62
2023-05-28T19:15:04.873Z,46.14
2023-05-28T19:17:34.986Z,46.83
2023-05-28T19:20:04.735Z,47.53
2023-05-28T19:22:33.745Z,48.17
2023-05-28T19:25:03.547Z,48.95
2023-05-28T19:27:32.496Z,50.03
2023-05-28T19:30:02.667Z,50.70
2023-05-28T19:32:31.276Z,51.28
2023-05-28T19:35:01.310Z,51.98
2023-05-28T19:37:29.927Z,52.35
2023-05-28T19:39:59.054Z,53.54
2023-05-28T19:42:30.522Z,54.13
2023-05-28T19:44:59.417Z,55.18
2023-05-28T19:47:28.210Z,55.59
2023-05-28T19:49:58.002Z,56.74
2023-05-28T19:52:29.461Z,57.48
2023-05-28T19:54:59.317Z,57.79
2023-05-28T19:57:28.403Z,58.72
2023-05-28T19:59:58.738Z,58.86
2023-05-28T20:02:27.928Z,59.36
2023-05-28T20:05:00.207Z,60.28
2023-05-28T20:07:30.609Z,60.01
2023-05-28T20:09:59.760Z,60.29
2023-05-28T20:12:28.544Z,60.82
2023-05-28T20:14:57.244Z,60.88
2023-05-28T20:17:25.788Z,61.45
2023-05-28T20:19:54.677Z,61.09
2023-05-28T20:22:23.501Z,61.66
2023-05-28T20:24:53.858Z,62.23
2023-05-28T20:27:22.458Z,61.89
2023-05-28T20:29:51.195Z,61.85
2023-05-28T20:32:22.027Z,62.48
2023-05-28T20:34:50.656Z,62.87
2023-05-28T20:37:19.293Z,63.41
2023-05-28T20:39:48.637Z,63.35
2023-05-28T20:42:19.099Z,63.63
2023-05-28T20:44:47.544Z,63.94
2023-05-28T20:47:16.902Z,64.64
2023-05-28T20:49:45.547Z,64.25
2023-05-28T20:52:14.475Z,64.65
2023-05-28T20:54:44.748Z,65.10
2023-05-28T20:57:14.395Z,65.32
2023-05-28T20:59:45.051Z,65.75
2023-05-28T21:02:13.501Z,65.96
2023-05-28T21:04:42.222Z,66.12
2023-05-28T21:07:14.032Z,66.09
2023-05-28T21:09:42.570Z,66.25
2023-05-28T21:12:11.200Z,66.28
2023-05-28T21:14:39.994Z,66.27
2023-05-28T21:17:10.221Z,66.71
2023-05-28T21:19:38.915Z,66.36
2023-05-28T21:22:09.779Z,66.68
2023-05-28T21:24:38.411Z,66.94
2023-05-28T21:27:07.369Z,66.85
2023-05-28T21:29:36.005Z,67.28
2023-05-28T21:32:04.514Z,67.39
2023-05-28T21:34:34.339Z,67.67
2023-05-28T21:37:02.773Z,67.62
2023-05-28T21:39:32.589Z,67.60
2023-05-28T21:42:01.510Z,68.06
2023-05-28T21:44:30.221Z,67.66
2023-05-28T21:46:58.689Z,68.30
2023-05-28T21:49:27.322Z,68.32
2023-05-28T21:51:57.700Z,68.44
2023-05-28T21:54:26.534Z,68.43
2023-05-28T21:56:54.999Z,68.41
2023-05-28T21:59:23.571Z,68.29
2023-05-28T22:01:52.091Z,68.63
2023-05-28T22:04:20.582Z,68.96
2023-05-28T22:06:49.515Z,68.76
2023-05-28T22:09:19.563Z,68.53
2023-05-28T22:11:48.173Z,68.66
2023-05-28T22:14:21.096Z,69.13
2023-05-28T22:16:50.704Z,69.10
2023-05-28T22:19:19.375Z,69.41
2023-05-28T22:21:48.110Z,69.03
2023-05-28T22:24:18.102Z,69.15
2023-05-28T22:26:46.577Z,69.50
2023-05-28T22:29:15.535Z,69.65
2023-05-28T22:31:44.420Z,70.04
2023-05-28T22:34:13.535Z,69.99
2023-05-28T22:36:42.293Z,70.33
2023-05-28T22:39:10.800Z,70.43
2023-05-28T22:41:41.301Z,70.21
2023-05-28T22:44:12.541Z,70.73
2023-05-28T22:46:41.782Z,70.52
2023-05-28T22:49:10.929Z,70.86
2023-05-28T22:51:39.431Z,70.85
2023-05-28T22:54:09.666Z,71.08
2023-05-28T22:56:43.682Z,71.24
2023-05-28T22:59:13.799Z,71.46
2023-05-28T23:01:42.948Z,71.65
2023-05-28T23:04:12.209Z,71.52
2023-05-28T23:06:42.456Z,71.99
2023-05-28T23:09:11.326Z,72.47
2023-05-28T23:11:41.517Z,71.83
2023-05-28T23:14:10.350Z,71.87
2023-05-28T23:16:41.357Z,72.29
2023-05-28T23:19:11.025Z,72.55
2023-05-28T23:21:40.595Z,72.73
2023-05-28T23:24:10.619Z,72.31
2023-05-28T23:26:40.554Z,72.40
2023-05-28T23:29:09.452Z,72.73
2023-05-28T23:31:37.994Z,73.16
2023-05-28T23:34:06.539Z,72.63
2023-05-28T23:36:34.938Z,72.72
2023-05-28T23:39:04.808Z,73.41
2023-05-28T23:41:33.328Z,72.93
2023-05-28T23:44:04.064Z,72.70
2023-05-28T23:46:34.304Z,72.91
2023-05-28T23:49:02.837Z,73.37
2023-05-28T23:51:33.266Z,73.22
2023-05-28T23:54:01.808Z,72.86
2023-05-28T23:56:30.588Z,73.35
2023-05-28T23:58:59.213Z,73.29
